Time;durP1;ratioP1;P1;durP2;ratioP2;P2;SDS_P1;SDS_P2;PMS_P1;PMS_P2;Temp;Humidity;BMP_temperature;BMP_pressure;BME280_temperature;BME280_humidity;BME280_pressure;Samples;Min_cycle;Max_cycle;Signal;HPM_P1;HPM_P2
2022/09/14 00:01:58;;;;;;;2.83;2.63;;;18.00;99.90;;;;;;5033856;28;20202;-74
2022/09/14 00:04:24;;;;;;;3.90;3.17;;;18.10;99.90;;;;;;5033367;28;20174;-73
2022/09/14 00:06:50;;;;;;;3.83;2.43;;;18.00;99.90;;;;;;5033752;28;20460;-73
2022/09/14 00:09:19;;;;;;;3.40;2.33;;;18.10;99.90;;;;;;5033419;28;20473;-73
2022/09/14 00:11:44;;;;;;;2.97;2.67;;;18.10;99.90;;;;;;5033641;28;20463;-74
2022/09/14 00:14:10;;;;;;;3.90;2.47;;;18.10;99.90;;;;;;5033215;28;20408;-75
2022/09/14 00:16:38;;;;;;;2.40;2.20;;;18.10;99.90;;;;;;5033479;28;20646;-75
2022/09/14 00:19:06;;;;;;;4.10;2.93;;;18.10;99.90;;;;;;5033414;28;20202;-76
2022/09/14 00:21:37;;;;;;;6.37;3.57;;;18.10;99.90;;;;;;5033408;28;20429;-75
2022/09/14 00:24:05;;;;;;;2.50;2.30;;;18.10;99.90;;;;;;5033484;28;20409;-73
2022/09/14 00:26:31;;;;;;;4.97;3.30;;;18.10;99.90;;;;;;5032240;28;20503;-73
2022/09/14 00:28:58;;;;;;;5.47;3.27;;;18.20;99.90;;;;;;5033218;28;20448;-73
2022/09/14 00:31:25;;;;;;;3.00;2.53;;;18.20;99.90;;;;;;5032832;28;20447;-73
2022/09/14 00:33:51;;;;;;;3.93;2.87;;;18.20;99.90;;;;;;5033044;28;20409;-73
2022/09/14 00:36:22;;;;;;;3.03;2.83;;;18.20;99.90;;;;;;5032879;28;20432;-74
2022/09/14 00:38:49;;;;;;;3.23;3.03;;;18.20;99.90;;;;;;5033071;28;20921;-73
2022/09/14 00:41:18;;;;;;;3.10;2.90;;;18.20;99.90;;;;;;5033057;28;21071;-73
2022/09/14 00:43:51;;;;;;;2.70;2.50;;;18.30;99.90;;;;;;5033117;28;20420;-74
2022/09/14 00:46:16;;;;;;;2.70;2.50;;;18.30;99.90;;;;;;5032780;28;20448;-72
2022/09/14 00:48:42;;;;;;;4.33;3.23;;;18.30;99.90;;;;;;5033002;28;20443;-73
2022/09/14 00:51:07;;;;;;;3.70;3.37;;;18.30;99.90;;;;;;5032602;28;20535;-74
2022/09/14 00:53:33;;;;;;;6.63;2.87;;;18.40;99.90;;;;;;5032504;28;20251;-73
2022/09/14 00:55:58;;;;;;;3.50;2.10;;;18.40;99.90;;;;;;5032838;28;20182;-74
2022/09/14 00:58:24;;;;;;;4.60;3.00;;;18.40;99.90;;;;;;5032809;28;20235;-73
2022/09/14 02:32:05;;;;;;;3.93;3.63;;;17.60;99.90;;;;;;5751313;22;21161;-74
2022/09/14 02:34:45;;;;;;;5.37;4.50;;;17.60;99.90;;;;;;5004537;28;20845;-75
2022/09/14 02:37:31;;;;;;;5.90;3.70;;;17.50;99.90;;;;;;5032093;28;20419;-74
2022/09/14 02:40:23;;;;;;;8.43;4.57;;;17.50;99.90;;;;;;5031124;28;20409;-74
2022/09/14 02:43:07;;;;;;;6.93;4.63;;;17.50;99.90;;;;;;5031472;28;20451;-74
2022/09/14 02:46:02;;;;;;;5.27;4.07;;;17.50;99.90;;;;;;5031950;28;21024;-75
2022/09/14 02:48:42;;;;;;;4.87;4.20;;;17.50;99.90;;;;;;5031782;28;20444;-74
2022/09/14 02:51:15;;;;;;;5.27;4.77;;;17.50;99.90;;;;;;5035210;28;20808;-74
2022/09/14 02:53:50;;;;;;;5.43;4.30;;;17.50;99.90;;;;;;5035261;28;20921;-75
2022/09/14 02:56:17;;;;;;;8.23;4.37;;;17.50;99.90;;;;;;5035607;28;20499;-74
2022/09/14 02:58:44;;;;;;;5.60;4.47;;;17.40;99.90;;;;;;5034973;28;20409;-75
2022/09/14 03:01:18;;;;;;;6.03;4.10;;;17.50;99.90;;;;;;5034652;28;20840;-75
2022/09/14 03:03:43;;;;;;;7.33;4.37;;;17.50;99.90;;;;;;5034423;28;20403;-74
2022/09/14 03:06:09;;;;;;;6.73;4.23;;;17.40;99.90;;;;;;5034824;28;20405;-74
2022/09/14 03:08:35;;;;;;;8.13;3.93;;;17.40;99.90;;;;;;5034865;28;20227;-73
2022/09/14 03:11:01;;;;;;;11.20;4.80;;;17.40;99.90;;;;;;5034495;28;20194;-75
2022/09/14 03:13:26;;;;;;;5.13;4.23;;;17.40;99.90;;;;;;5034514;28;20228;-72
2022/09/14 03:15:52;;;;;;;5.40;4.90;;;17.40;99.90;;;;;;5034463;28;20174;-74
2022/09/14 03:18:18;;;;;;;6.07;5.00;;;17.40;99.90;;;;;;5034626;28;20586;-73
2022/09/14 03:20:44;;;;;;;5.47;4.97;;;17.40;99.90;;;;;;5034237;28;20749;-74
2022/09/14 03:23:11;;;;;;;6.70;5.40;;;17.40;99.90;;;;;;5034492;28;20268;-74
2022/09/14 03:25:38;;;;;;;6.00;5.40;;;17.50;99.90;;;;;;5034687;28;20758;-74
2022/09/14 03:28:05;;;;;;;5.97;5.00;;;17.50;99.90;;;;;;5034285;28;20448;-72
2022/09/14 03:30:31;;;;;;;10.97;5.00;;;17.50;99.90;;;;;;5034208;28;20413;-76
2022/09/14 03:32:58;;;;;;;4.87;3.63;;;17.50;99.90;;;;;;5033678;28;20840;-75
2022/09/14 03:35:23;;;;;;;8.87;4.43;;;17.50;99.90;;;;;;5034148;28;20423;-74
2022/09/14 03:37:49;;;;;;;5.33;4.30;;;17.50;99.90;;;;;;5034234;28;20409;-74
2022/09/14 03:40:16;;;;;;;7.40;3.80;;;17.50;99.90;;;;;;5034693;28;20631;-74
2022/09/14 03:42:47;;;;;;;6.90;4.50;;;17.50;99.90;;;;;;5033642;28;20212;-74
2022/09/14 03:45:14;;;;;;;4.03;3.63;;;17.50;99.90;;;;;;5034987;28;20881;-74
2022/09/14 03:47:40;;;;;;;5.43;4.50;;;17.50;99.90;;;;;;5034657;28;20467;-75
2022/09/14 03:50:09;;;;;;;4.13;3.73;;;17.50;99.90;;;;;;5035025;28;20471;-74
2022/09/14 03:52:35;;;;;;;7.50;4.17;;;17.50;99.90;;;;;;5034787;28;20440;-73
2022/09/14 03:55:01;;;;;;;4.70;3.87;;;17.50;99.90;;;;;;5034822;28;20824;-74
2022/09/14 03:57:27;;;;;;;6.00;4.87;;;17.50;99.90;;;;;;5035039;28;20468;-74
2022/09/14 03:59:52;;;;;;;7.90;3.80;;;17.60;99.90;;;;;;5034520;28;21396;-74
2022/09/14 04:02:18;;;;;;;8.90;4.50;;;17.60;99.90;;;;;;5034700;28;20201;-74
2022/09/14 04:04:44;;;;;;;7.63;4.10;;;17.60;99.90;;;;;;5034805;28;20185;-74
2022/09/14 04:07:09;;;;;;;8.47;4.47;;;17.60;99.90;;;;;;5034669;28;20214;-74
2022/09/14 04:09:35;;;;;;;4.37;4.07;;;17.60;99.90;;;;;;5034367;28;20178;-75
2022/09/14 04:12:01;;;;;;;7.20;4.57;;;17.60;99.90;;;;;;5034160;28;20198;-74
2022/09/14 04:14:26;;;;;;;9.67;5.57;;;17.60;99.90;;;;;;5034037;28;20185;-75
2022/09/14 04:16:52;;;;;;;7.40;6.70;;;17.60;99.90;;;;;;5034331;28;20272;-74
2022/09/14 04:19:17;;;;;;;7.10;5.07;;;17.60;99.90;;;;;;5034049;28;20694;-74
2022/09/14 04:21:44;;;;;;;5.80;4.70;;;17.70;99.90;;;;;;5034088;28;20209;-75
2022/09/14 04:24:12;;;;;;;6.13;5.53;;;17.70;99.90;;;;;;5034010;28;20244;-75
2022/09/14 04:26:38;;;;;;;7.13;6.40;;;17.70;99.90;;;;;;5034023;28;20453;-74
2022/09/14 04:29:03;;;;;;;9.90;6.53;;;17.70;99.90;;;;;;5034410;28;20471;-75
2022/09/14 04:31:29;;;;;;;6.00;5.60;;;17.70;99.90;;;;;;5033293;28;20210;-75
2022/09/14 04:33:55;;;;;;;5.70;5.20;;;17.70;99.90;;;;;;5033174;28;20296;-74
2022/09/14 04:36:24;;;;;;;6.20;5.60;;;17.70;99.90;;;;;;5033545;28;20412;-74
2022/09/14 04:38:52;;;;;;;8.90;5.07;;;17.70;99.90;;;;;;5033838;28;20947;-74
2022/09/14 04:41:19;;;;;;;8.73;5.50;;;17.70;99.90;;;;;;5033061;28;20451;-74
2022/09/14 04:43:46;;;;;;;5.43;4.80;;;17.70;99.90;;;;;;5032726;28;20421;-72
2022/09/14 04:46:17;;;;;;;8.70;5.60;;;17.60;99.90;;;;;;5033073;28;20431;-72
2022/09/14 04:48:43;;;;;;;5.67;5.07;;;17.60;99.90;;;;;;5033005;28;20928;-73
2022/09/14 04:51:18;;;;;;;8.50;5.40;;;17.70;99.90;;;;;;5032976;28;20528;-73
2022/09/14 04:53:45;;;;;;;4.77;4.27;;;17.70;99.90;;;;;;5032619;28;20184;-73
2022/09/14 04:56:12;;;;;;;4.53;4.20;;;17.70;99.90;;;;;;5033027;28;20408;-74
2022/09/14 04:58:44;;;;;;;6.53;4.20;;;17.80;99.90;;;;;;5032768;28;20416;-74
2022/09/14 05:01:13;;;;;;;9.93;5.00;;;17.80;99.90;;;;;;5032591;28;20583;-74
2022/09/14 05:03:39;;;;;;;6.47;4.67;;;17.70;99.90;;;;;;5032476;28;20758;-74
2022/09/14 05:06:08;;;;;;;6.20;5.07;;;17.70;99.90;;;;;;5032467;28;20455;-74
2022/09/14 05:08:35;;;;;;;6.97;4.40;;;17.80;99.90;;;;;;5032619;28;20417;-74
2022/09/14 05:11:01;;;;;;;6.13;4.80;;;17.80;99.90;;;;;;5032340;28;20429;-74
2022/09/14 05:13:27;;;;;;;7.20;6.27;;;17.80;99.90;;;;;;5032055;28;20413;-73
2022/09/14 05:15:52;;;;;;;6.27;5.77;;;17.80;99.90;;;;;;5032476;28;20412;-74
2022/09/14 05:18:18;;;;;;;5.47;4.97;;;17.80;99.90;;;;;;5032579;28;20186;-74
2022/09/14 05:20:44;;;;;;;6.37;5.83;;;17.80;99.90;;;;;;5032201;28;20186;-74
2022/09/14 05:23:09;;;;;;;6.70;6.20;;;17.90;99.90;;;;;;5032282;28;20178;-74
2022/09/14 05:25:35;;;;;;;6.90;6.30;;;17.90;99.90;;;;;;5032359;28;20174;-74
2022/09/14 05:28:01;;;;;;;6.27;5.67;;;17.90;99.90;;;;;;5032134;28;20251;-74
2022/09/14 05:30:26;;;;;;;10.23;7.70;;;17.90;99.90;;;;;;5032313;28;20196;-73
2022/09/14 05:32:52;;;;;;;9.27;8.30;;;17.90;99.90;;;;;;5031867;28;20210;-74
2022/09/14 05:35:18;;;;;;;11.20;8.10;;;17.90;99.90;;;;;;5032567;28;20186;-74
2022/09/14 05:37:43;;;;;;;8.30;7.33;;;17.90;99.90;;;;;;5031888;28;20178;-74
2022/09/14 05:40:09;;;;;;;7.43;6.70;;;18.00;99.90;;;;;;5032130;28;20232;-74
2022/09/14 05:42:35;;;;;;;9.90;7.03;;;18.00;99.90;;;;;;5031830;28;20198;-74
2022/09/14 05:45:00;;;;;;;6.97;6.37;;;18.00;99.90;;;;;;5031910;28;20409;-74
2022/09/14 05:47:29;;;;;;;9.00;5.23;;;18.00;99.90;;;;;;5032109;28;20580;-73
2022/09/14 05:49:56;;;;;;;7.93;6.00;;;18.00;99.90;;;;;;5031652;28;20174;-74
2022/09/14 05:52:22;;;;;;;8.63;6.13;;;18.10;99.90;;;;;;5031998;28;20435;-74
2022/09/14 05:54:47;;;;;;;7.10;6.50;;;18.10;99.90;;;;;;5031471;28;20409;-74
2022/09/14 05:57:13;;;;;;;8.17;7.20;;;18.10;99.90;;;;;;5032044;28;20178;-74
2022/09/14 05:59:38;;;;;;;11.97;8.67;;;18.20;99.90;;;;;;5031706;28;20174;-74
2022/09/14 06:02:04;;;;;;;8.80;7.97;;;18.20;99.90;;;;;;5031868;28;20198;-74
2022/09/14 06:04:29;;;;;;;7.20;6.63;;;18.30;99.90;;;;;;5031513;28;20174;-74
2022/09/14 06:06:55;;;;;;;8.13;7.43;;;18.30;99.90;;;;;;5031933;28;20202;-73
2022/09/14 06:09:20;;;;;;;6.77;6.20;;;18.40;99.90;;;;;;5046933;28;20257;-74
2022/09/14 06:11:46;;;;;;;8.87;6.67;;;18.50;99.90;;;;;;5031505;28;20615;-74
2022/09/14 06:14:11;;;;;;;10.53;7.80;;;18.60;99.90;;;;;;5031486;28;20177;-74
2022/09/14 06:16:37;;;;;;;7.00;6.40;;;18.70;99.90;;;;;;5031855;28;20182;-74
2022/09/14 06:19:02;;;;;;;8.60;5.50;;;18.90;99.90;;;;;;5031458;28;20650;-74
2022/09/14 06:21:33;;;;;;;6.00;5.50;;;19.40;99.90;;;;;;5031637;28;20197;-74
2022/09/14 06:23:59;;;;;;;5.70;4.90;;;19.90;99.90;;;;;;5031735;28;20253;-74
2022/09/14 06:26:25;;;;;;;5.23;4.73;;;20.20;99.90;;;;;;5035679;28;20539;-74
2022/09/14 06:28:52;;;;;;;5.13;4.60;;;20.30;99.90;;;;;;5050852;28;20174;-74
2022/09/14 06:31:21;;;;;;;4.53;4.13;;;20.40;99.90;;;;;;5035313;28;20454;-74
2022/09/14 06:33:47;;;;;;;9.50;5.40;;;20.20;99.90;;;;;;5035361;28;20420;-74
2022/09/14 06:36:16;;;;;;;5.97;5.33;;;20.20;99.90;;;;;;5035268;28;20936;-74
2022/09/14 06:38:42;;;;;;;5.07;4.63;;;20.00;99.90;;;;;;5035518;28;20416;-71
2022/09/14 06:41:11;;;;;;;4.80;4.33;;;20.00;99.90;;;;;;5035186;28;20436;-72
2022/09/14 06:43:38;;;;;;;6.47;4.63;;;20.10;99.90;;;;;;5035067;28;20178;-72
2022/09/14 06:46:06;;;;;;;9.80;5.27;;;20.20;99.90;;;;;;5035184;28;20950;-71
2022/09/14 06:48:36;;;;;;;9.37;4.70;;;20.20;99.90;;;;;;5035395;28;20416;-72
2022/09/14 06:51:24;;;;;;;7.40;4.40;;;20.20;99.90;;;;;;5034911;28;20730;-71
2022/09/14 06:53:51;;;;;;;13.60;5.23;;;20.20;99.90;;;;;;5034934;28;20797;-71
2022/09/14 06:56:17;;;;;;;4.90;4.60;;;20.20;99.90;;;;;;5035105;28;20486;-71
2022/09/14 06:58:43;;;;;;;6.47;4.77;;;20.20;99.90;;;;;;5034891;28;20409;-71
2022/09/14 07:01:11;;;;;;;8.10;5.60;;;20.20;99.90;;;;;;5034849;28;20563;-71
2022/09/14 07:03:38;;;;;;;5.13;4.37;;;20.30;99.90;;;;;;5034809;28;20170;-71
2022/09/14 07:06:06;;;;;;;5.73;4.50;;;20.40;99.90;;;;;;5034882;28;20401;-71
2022/09/14 07:08:33;;;;;;;4.20;3.50;;;20.50;99.90;;;;;;5034871;28;20421;-71
2022/09/14 07:10:59;;;;;;;5.77;4.00;;;20.60;99.90;;;;;;5034682;28;20587;-71
2022/09/14 07:13:26;;;;;;;3.53;3.30;;;20.90;99.90;;;;;;5034712;28;20930;-72
2022/09/14 07:15:51;;;;;;;3.43;3.17;;;21.20;99.90;;;;;;5035182;28;20408;-71
2022/09/14 07:18:17;;;;;;;3.30;3.13;;;21.50;99.90;;;;;;5034798;28;20417;-71
2022/09/14 07:20:43;;;;;;;3.07;2.87;;;22.10;99.90;;;;;;5034341;28;20193;-71
2022/09/14 07:23:08;;;;;;;2.93;2.73;;;22.60;99.90;;;;;;5034367;28;20181;-71
2022/09/14 07:25:34;;;;;;;6.40;3.57;;;22.70;99.90;;;;;;5034579;28;20205;-71
2022/09/14 07:28:00;;;;;;;3.43;2.67;;;22.70;99.90;;;;;;5034583;28;20210;-71
2022/09/14 07:30:26;;;;;;;6.07;2.70;;;22.70;99.90;;;;;;5034516;28;20173;-71
2022/09/14 07:32:53;;;;;;;5.77;3.60;;;22.60;99.90;;;;;;5034085;28;20462;-71
2022/09/14 07:35:19;;;;;;;2.67;2.57;;;22.60;99.90;;;;;;5034088;28;20841;-70
2022/09/14 07:37:44;;;;;;;6.43;3.50;;;22.40;99.90;;;;;;5034256;28;20447;-71
2022/09/14 07:40:11;;;;;;;3.20;2.90;;;22.40;99.90;;;;;;5034341;28;20178;-72
2022/09/14 07:42:37;;;;;;;6.03;2.90;;;22.60;99.90;;;;;;5034035;28;20201;-71
2022/09/14 07:45:04;;;;;;;5.07;2.50;;;22.90;99.90;;;;;;5034139;28;20427;-71
2022/09/14 07:47:30;;;;;;;3.50;3.20;;;22.90;99.90;;;;;;5034446;28;20452;-71
2022/09/14 07:49:55;;;;;;;3.97;2.80;;;23.20;99.90;;;;;;5034196;28;20520;-71
2022/09/14 07:52:21;;;;;;;3.50;2.00;;;23.70;99.90;;;;;;5034240;28;20198;-71
2022/09/14 07:54:46;;;;;;;7.40;2.60;;;24.00;99.90;;;;;;5033929;28;20178;-72
2022/09/14 07:57:12;;;;;;;4.37;1.90;;;24.50;99.90;;;;;;5034254;28;20170;-71
2022/09/14 07:59:38;;;;;;;3.50;2.37;;;24.70;99.90;;;;;;5034225;28;20184;-71
2022/09/14 08:02:06;;;;;;;6.63;2.40;;;25.10;99.90;;;;;;5034191;28;20200;-71
2022/09/14 08:04:34;;;;;;;2.50;1.97;;;25.30;99.90;;;;;;5034122;28;20470;-71
2022/09/14 08:07:00;;;;;;;3.00;2.43;;;25.60;99.90;;;;;;5033901;28;20521;-71
2022/09/14 08:09:26;;;;;;;2.07;1.70;;;26.10;99.90;;;;;;5034130;28;20823;-71
2022/09/14 08:11:52;;;;;;;5.07;2.20;;;26.20;99.90;;;;;;5034648;28;20437;-71
2022/09/14 08:14:18;;;;;;;3.23;1.97;;;26.60;99.90;;;;;;5033313;28;20174;-72
2022/09/14 08:16:43;;;;;;;3.43;2.30;;;26.50;99.90;;;;;;5033492;28;20185;-71
2022/09/14 08:19:19;;;;;;;2.97;2.20;;;25.80;99.90;;;;;;5033500;28;20178;-70
2022/09/14 08:21:46;;;;;;;7.13;2.77;;;25.10;99.90;;;;;;5033337;28;20284;-71
2022/09/14 08:24:13;;;;;;;5.33;2.60;;;24.90;99.90;;;;;;5033122;28;20413;-71
2022/09/14 08:26:41;;;;;;;2.57;2.37;;;24.90;99.90;;;;;;5033176;28;20555;-71
2022/09/14 08:29:07;;;;;;;6.80;2.87;;;24.90;99.90;;;;;;5033317;28;20441;-71
2022/09/14 08:31:36;;;;;;;2.90;2.00;;;25.00;99.90;;;;;;5033004;28;20468;-71
2022/09/14 08:34:03;;;;;;;4.60;1.70;;;24.90;99.90;;;;;;5033046;28;20162;-71
2022/09/14 08:36:35;;;;;;;4.63;2.80;;;24.80;99.90;;;;;;5033329;28;20853;-71
2022/09/14 08:39:01;;;;;;;4.60;2.13;;;24.80;99.90;;;;;;5033668;28;20434;-71
2022/09/14 08:41:37;;;;;;;5.53;1.77;;;25.00;99.90;;;;;;5033199;28;20429;-71
2022/09/14 08:44:40;;;;;;;2.73;2.50;;;25.20;99.90;;;;;;5032691;28;20324;-71
2022/09/14 08:47:24;;;;;;;2.93;2.00;;;25.10;99.90;;;;;;5032256;28;20467;-72
2022/09/14 08:49:58;;;;;;;2.10;2.00;;;25.50;99.90;;;;;;5032754;28;20439;-71
2022/09/14 08:52:38;;;;;;;2.13;2.00;;;26.30;99.90;;;;;;5032888;28;20427;-71
2022/09/14 08:55:19;;;;;;;2.37;1.60;;;27.20;99.90;;;;;;5032475;28;20801;-71
2022/09/14 08:57:51;;;;;;;6.03;2.77;;;27.50;99.90;;;;;;5032677;28;20503;-72
2022/09/14 09:00:32;;;;;;;6.50;2.23;;;27.50;99.90;;;;;;5032559;28;20447;-72
2022/09/14 09:03:23;;;;;;;6.10;1.90;;;27.60;99.90;;;;;;5032546;28;21189;-71
2022/09/14 09:06:38;;;;;;;3.73;2.30;;;28.10;99.90;;;;;;5032411;28;20776;-71
2022/09/14 09:09:22;;;;;;;2.00;1.90;;;28.50;99.90;;;;;;5023041;28;20949;-71
2022/09/14 09:11:51;;;;;;;2.50;1.87;;;29.10;99.90;;;;;;5032120;28;20432;-71
2022/09/14 09:14:26;;;;;;;4.10;2.10;;;29.40;99.90;;;;;;5032414;28;21131;-71
2022/09/14 09:16:55;;;;;;;2.17;1.90;;;29.60;99.90;;;;;;5032140;28;20446;-72
2022/09/14 09:19:29;;;;;;;3.23;1.80;;;29.60;99.90;;;;;;5032209;28;20428;-72
2022/09/14 09:21:56;;;;;;;4.80;2.00;;;29.50;99.90;;;;;;5032305;28;20943;-72
2022/09/14 09:24:44;;;;;;;3.70;1.97;;;29.90;99.90;;;;;;5032079;28;20858;-72
2022/09/14 09:27:12;;;;;;;4.00;1.80;;;29.30;99.90;;;;;;5032036;28;20456;-72
2022/09/14 09:29:38;;;;;;;2.70;1.80;;;29.20;99.90;;;;;;5032067;28;20421;-72
2022/09/14 09:32:07;;;;;;;1.90;1.50;;;29.00;99.90;;;;;;5031897;28;20447;-71
2022/09/14 09:34:33;;;;;;;7.57;1.93;;;28.60;99.90;;;;;;5031847;28;20170;-72
2022/09/14 09:36:59;;;;;;;3.43;1.97;;;28.50;99.90;;;;;;5031828;28;20436;-72
2022/09/14 09:39:25;;;;;;;2.73;1.93;;;28.30;99.90;;;;;;5031834;28;20413;-72
2022/09/14 09:42:02;;;;;;;3.17;1.83;;;28.40;99.90;;;;;;5031935;28;20879;-72
2022/09/14 09:44:28;;;;;;;2.80;2.20;;;28.50;99.90;;;;;;5031772;28;20181;-73
2022/09/14 09:46:56;;;;;;;2.00;1.40;;;28.30;99.90;;;;;;5031756;28;20787;-72
2022/09/14 09:49:41;;;;;;;2.83;1.83;;;28.70;99.90;;;;;;5031798;28;20811;-73
2022/09/14 09:52:11;;;;;;;3.10;1.53;;;29.50;99.90;;;;;;5032065;28;20487;-73
2022/09/14 09:54:39;;;;;;;1.63;1.53;;;30.00;99.90;;;;;;5031452;28;20978;-73
2022/09/14 09:57:19;;;;;;;6.33;1.60;;;30.60;99.90;;;;;;5030643;28;20416;-73
2022/09/14 09:59:45;;;;;;;3.43;1.63;;;31.10;99.90;;;;;;5031940;28;20409;-73
2022/09/14 10:02:28;;;;;;;2.90;1.57;;;31.30;99.90;;;;;;5031812;28;20435;-74
2022/09/14 10:04:58;;;;;;;2.30;1.40;;;31.40;99.90;;;;;;5031396;28;20423;-73
2022/09/14 10:07:24;;;;;;;3.13;1.50;;;31.00;99.90;;;;;;5031809;28;20510;-73
2022/09/14 10:10:06;;;;;;;5.33;2.27;;;30.70;99.90;;;;;;5031574;28;20450;-72
2022/09/14 10:12:32;;;;;;;4.40;1.83;;;30.60;99.90;;;;;;5031453;28;20425;-73
2022/09/14 10:15:15;;;;;;;2.67;1.70;;;30.70;99.90;;;;;;5031290;28;20416;-73
2022/09/14 10:17:59;;;;;;;2.70;1.53;;;30.70;99.90;;;;;;5031474;28;20990;-73
2022/09/14 10:20:25;;;;;;;5.50;1.80;;;30.60;99.90;;;;;;5031489;28;20811;-73
2022/09/14 10:22:51;;;;;;;1.70;1.60;;;30.20;99.90;;;;;;5031249;28;20452;-73
2022/09/14 10:25:16;;;;;;;4.20;1.50;;;29.80;99.90;;;;;;5031419;28;20185;-73
2022/09/14 10:27:54;;;;;;;2.13;1.93;;;29.40;99.90;;;;;;5031317;28;20209;-73
2022/09/14 10:30:22;;;;;;;4.23;2.03;;;29.50;99.90;;;;;;5046697;28;20261;-73
2022/09/14 10:33:01;;;;;;;4.70;1.77;;;29.10;99.90;;;;;;5029989;28;20444;-73
2022/09/14 10:35:34;;;;;;;3.83;2.50;;;29.10;99.90;;;;;;5031406;28;20652;-73
2022/09/14 10:38:04;;;;;;;2.83;1.93;;;28.70;99.90;;;;;;5031389;28;20412;-73
2022/09/14 10:40:38;;;;;;;3.67;1.90;;;28.60;99.90;;;;;;5031187;28;20416;-73
2022/09/14 10:43:25;;;;;;;5.60;2.30;;;28.50;99.90;;;;;;5031451;28;20416;-76
2022/09/14 10:45:54;;;;;;;2.10;1.60;;;28.20;99.90;;;;;;5030912;28;20416;-73
2022/09/14 10:48:35;;;;;;;3.27;1.80;;;28.20;99.90;;;;;;5031313;28;20464;-73
2022/09/14 10:51:26;;;;;;;3.33;1.80;;;28.30;99.90;;;;;;5031000;28;20611;-73
2022/09/14 10:54:17;;;;;;;4.93;1.63;;;28.10;99.90;;;;;;5031077;28;20817;-73
2022/09/14 10:57:19;;;;;;;1.97;1.80;;;28.40;99.90;;;;;;5030614;28;20435;-73
2022/09/14 11:00:08;;;;;;;2.80;1.77;;;28.60;99.90;;;;;;5031035;28;20407;-73
2022/09/14 11:02:36;;;;;;;3.37;2.07;;;28.50;99.90;;;;;;5031074;28;20524;-73
2022/09/14 11:05:24;;;;;;;2.30;1.47;;;28.40;99.90;;;;;;5030868;28;20445;-72
2022/09/14 11:08:02;;;;;;;2.67;1.63;;;28.20;99.90;;;;;;5030903;28;20460;-73
2022/09/14 11:10:49;;;;;;;6.13;1.73;;;28.10;99.90;;;;;;5031789;28;20490;-72
2022/09/14 11:13:39;;;;;;;2.03;1.63;;;28.30;99.90;;;;;;5034728;28;20764;-73
2022/09/14 11:16:30;;;;;;;2.27;2.13;;;28.30;99.90;;;;;;5034664;28;20407;-72
2022/09/14 11:19:11;;;;;;;2.83;1.53;;;28.50;99.90;;;;;;5034814;28;20531;-73
2022/09/14 11:21:47;;;;;;;1.73;1.53;;;29.00;99.90;;;;;;5034502;28;20875;-73
2022/09/14 11:24:18;;;;;;;3.87;1.30;;;29.50;99.90;;;;;;5034523;28;20486;-73
2022/09/14 11:27:27;;;;;;;2.13;1.77;;;29.90;99.90;;;;;;5034538;28;20483;-73
2022/09/14 11:30:15;;;;;;;2.80;1.70;;;30.30;99.90;;;;;;5012096;28;20484;-73
2022/09/14 11:32:49;;;;;;;4.20;1.47;;;30.50;99.90;;;;;;5034440;28;20452;-73
2022/09/14 11:35:23;;;;;;;2.90;1.83;;;30.10;99.90;;;;;;5034510;28;20782;-73
2022/09/14 11:37:57;;;;;;;7.40;2.20;;;29.60;99.90;;;;;;5034321;28;20901;-73
2022/09/14 11:40:41;;;;;;;1.83;1.47;;;29.00;99.90;;;;;;5034289;28;20782;-73
2022/09/14 11:43:15;;;;;;;4.27;1.30;;;29.30;99.90;;;;;;5034389;28;20507;-73
2022/09/14 11:45:47;;;;;;;2.73;1.60;;;29.70;99.90;;;;;;5034054;28;20439;-73
2022/09/14 11:48:20;;;;;;;1.43;1.30;;;30.00;99.90;;;;;;5034121;28;20462;-73
2022/09/14 11:50:50;;;;;;;1.67;1.50;;;30.20;99.90;;;;;;5034046;28;20455;-73
2022/09/14 11:53:17;;;;;;;1.60;1.50;;;30.30;99.90;;;;;;5034954;28;20444;-73
2022/09/14 11:55:48;;;;;;;6.00;1.83;;;30.20;99.90;;;;;;5034200;28;20405;-72
2022/09/14 11:58:19;;;;;;;4.60;1.70;;;30.10;99.90;;;;;;5034081;28;20412;-73
2022/09/14 12:00:48;;;;;;;3.67;1.90;;;29.90;99.90;;;;;;5033805;28;20474;-73
2022/09/14 12:03:19;;;;;;;1.70;1.60;;;29.60;99.90;;;;;;5033920;28;20499;-73
2022/09/14 12:05:47;;;;;;;4.80;1.90;;;29.30;99.90;;;;;;5033925;28;20412;-73
2022/09/14 12:08:34;;;;;;;3.73;2.27;;;28.90;99.90;;;;;;5033801;28;20582;-73
2022/09/14 12:11:21;;;;;;;2.57;1.50;;;28.50;99.90;;;;;;5033510;28;20528;-73
2022/09/14 12:13:47;;;;;;;3.70;1.90;;;28.20;99.90;;;;;;5033305;28;20409;-73
2022/09/14 12:16:13;;;;;;;4.50;1.90;;;27.90;99.90;;;;;;5033579;28;20413;-73
2022/09/14 12:18:41;;;;;;;3.93;2.10;;;27.70;99.90;;;;;;5033548;28;20181;-73
2022/09/14 12:21:21;;;;;;;5.03;1.63;;;27.50;99.90;;;;;;5033233;28;20456;-73
2022/09/14 12:23:51;;;;;;;2.80;1.50;;;27.30;99.90;;;;;;5032664;28;20440;-73
2022/09/14 12:26:16;;;;;;;2.83;1.77;;;27.20;99.90;;;;;;5033407;28;20420;-73
2022/09/14 12:28:54;;;;;;;6.00;2.20;;;27.00;99.90;;;;;;5033172;28;20774;-73
2022/09/14 12:31:37;;;;;;;3.80;1.70;;;27.10;99.90;;;;;;5033118;28;20210;-73
2022/09/14 12:34:22;;;;;;;1.83;1.60;;;27.10;99.90;;;;;;5033159;28;20408;-73
2022/09/14 12:36:47;;;;;;;5.40;1.70;;;27.00;99.90;;;;;;5033173;28;20423;-73
2022/09/14 12:39:32;;;;;;;4.00;1.80;;;26.90;99.90;;;;;;5033119;28;20909;-73
2022/09/14 12:42:01;;;;;;;3.63;2.03;;;26.60;99.90;;;;;;5033455;28;20194;-73
2022/09/14 12:44:38;;;;;;;2.80;1.97;;;26.40;99.90;;;;;;5033096;28;20413;-72
2022/09/14 12:47:30;;;;;;;2.63;2.20;;;26.10;99.90;;;;;;5033095;28;20456;-73
2022/09/14 12:50:11;;;;;;;2.70;2.50;;;25.70;99.90;;;;;;5032632;28;21012;-72
2022/09/14 12:52:57;;;;;;;4.17;2.67;;;25.30;99.90;;;;;;5032679;28;20807;-72
2022/09/14 12:55:50;;;;;;;4.80;2.30;;;24.60;99.90;;;;;;5032605;28;20748;-72
2022/09/14 12:58:45;;;;;;;4.00;3.00;;;24.00;99.90;;;;;;5032812;28;20413;-72
2022/09/14 13:01:32;;;;;;;2.63;2.00;;;23.40;99.90;;;;;;5032446;28;20808;-73
2022/09/14 13:03:58;;;;;;;5.13;2.00;;;22.80;99.90;;;;;;5032487;28;20804;-72
2022/09/14 13:06:32;;;;;;;3.37;2.30;;;22.40;99.90;;;;;;5032364;28;20408;-72
2022/09/14 13:08:59;;;;;;;3.77;2.47;;;22.00;99.90;;;;;;5032672;28;20634;-73
2022/09/14 13:11:32;;;;;;;2.53;1.97;;;21.80;99.90;;;;;;5032369;28;20527;-73
2022/09/14 13:13:59;;;;;;;4.73;2.30;;;21.40;99.90;;;;;;5032364;28;20424;-72
2022/09/14 13:16:46;;;;;;;4.63;2.00;;;21.30;99.90;;;;;;5032359;28;20878;-72
2022/09/14 13:19:28;;;;;;;4.63;2.50;;;21.10;99.90;;;;;;5032405;28;20409;-73
2022/09/14 13:21:57;;;;;;;2.40;2.20;;;21.00;99.90;;;;;;5032119;28;20555;-72
2022/09/14 13:24:34;;;;;;;2.83;1.80;;;20.90;99.90;;;;;;5032234;28;20417;-72
2022/09/14 13:27:01;;;;;;;2.63;2.40;;;20.80;99.90;;;;;;5032076;28;20518;-72
2022/09/14 13:29:28;;;;;;;5.20;1.87;;;20.60;99.90;;;;;;5032318;28;20417;-72
2022/09/14 13:31:56;;;;;;;7.33;2.07;;;20.60;99.90;;;;;;5031814;28;20548;-73
2022/09/14 13:34:31;;;;;;;8.00;2.30;;;20.50;99.90;;;;;;5031898;28;20409;-73
2022/09/14 13:36:57;;;;;;;4.70;2.20;;;20.50;99.90;;;;;;5031978;28;20420;-73
2022/09/14 13:39:35;;;;;;;2.37;1.73;;;20.50;99.90;;;;;;5032081;28;20931;-73
2022/09/14 13:42:02;;;;;;;3.67;1.80;;;20.50;99.90;;;;;;5031869;28;20216;-73
2022/09/14 13:44:33;;;;;;;2.23;1.73;;;20.50;99.90;;;;;;5031825;28;20431;-72
2022/09/14 13:47:02;;;;;;;4.50;1.60;;;20.50;99.90;;;;;;5031771;28;20510;-73
2022/09/14 13:49:28;;;;;;;1.73;1.10;;;20.50;99.90;;;;;;5031907;28;20971;-73
2022/09/14 13:52:16;;;;;;;1.60;1.50;;;20.40;99.90;;;;;;5031606;28;20528;-73
2022/09/14 13:54:41;;;;;;;4.40;1.60;;;20.40;99.90;;;;;;5031445;28;20182;-73
2022/09/14 13:57:13;;;;;;;2.70;1.57;;;20.40;99.90;;;;;;5031725;28;20467;-72
2022/09/14 14:00:11;;;;;;;1.60;1.50;;;20.30;99.90;;;;;;5031700;28;20201;-73
2022/09/14 14:02:41;;;;;;;2.73;1.63;;;20.30;99.90;;;;;;5031594;28;20433;-72
2022/09/14 14:05:26;;;;;;;2.83;1.60;;;20.30;99.90;;;;;;5031837;28;20431;-72
2022/09/14 14:07:53;;;;;;;1.80;1.63;;;20.30;99.90;;;;;;5031436;28;20551;-72
2022/09/14 14:10:26;;;;;;;2.77;1.57;;;20.30;99.90;;;;;;5031559;28;20413;-72
2022/09/14 14:12:51;;;;;;;2.60;1.43;;;20.30;99.90;;;;;;5031331;28;20431;-73
2022/09/14 14:15:17;;;;;;;1.00;0.90;;;20.30;99.90;;;;;;5031461;28;20853;-73
2022/09/14 14:17:43;;;;;;;3.70;1.90;;;20.30;99.90;;;;;;5031488;28;20654;-73
2022/09/14 14:20:27;;;;;;;2.30;1.43;;;20.20;99.90;;;;;;5031661;28;20718;-73
2022/09/14 14:23:00;;;;;;;1.80;1.70;;;20.20;99.90;;;;;;5030066;28;20205;-73
2022/09/14 14:25:38;;;;;;;4.03;1.33;;;20.20;99.90;;;;;;5031437;28;20413;-73
2022/09/14 14:28:13;;;;;;;3.70;1.33;;;20.20;99.90;;;;;;5031706;28;20514;-73
2022/09/14 14:30:40;;;;;;;1.10;0.97;;;20.30;99.90;;;;;;5031085;28;20798;-73
2022/09/14 14:33:12;;;;;;;1.60;1.50;;;20.30;99.90;;;;;;5031438;28;20424;-73
2022/09/14 14:35:37;;;;;;;3.07;1.50;;;20.40;99.90;;;;;;5031438;28;20816;-73
2022/09/14 14:38:03;;;;;;;2.13;1.37;;;20.40;99.90;;;;;;5031553;28;20425;-73